Time;durP1;ratioP1;P1;durP2;ratioP2;P2;SDS_P1;SDS_P2;PMS_P1;PMS_P2;Temp;Humidity;BMP_temperature;BMP_pressure;BME280_temperature;BME280_humidity;BME280_pressure;Samples;Min_cycle;Max_cycle;Signal;HPM_P1;HPM_P2
2021/11/28 00:01:44;;;;;;;12.73;9.70;;;5.80;88.50;;;;;;5091368;28;20040;-74
2021/11/28 00:04:13;;;;;;;14.02;9.98;;;5.80;88.50;;;;;;5091554;28;20024;-74
2021/11/28 00:06:40;;;;;;;12.80;9.63;;;5.70;88.50;;;;;;5091478;28;20030;-74
2021/11/28 00:12:09;;;;;;;13.25;9.18;;;5.70;88.60;;;;;;5092874;28;20031;-74
2021/11/28 00:14:35;;;;;;;12.18;9.27;;;5.70;88.70;;;;;;5091318;28;20024;-74
2021/11/28 00:17:01;;;;;;;11.70;9.18;;;5.70;88.80;;;;;;5091394;28;20485;-73
2021/11/28 00:19:27;;;;;;;13.30;9.95;;;5.70;88.80;;;;;;5091109;28;20067;-74
2021/11/28 00:21:53;;;;;;;12.63;9.45;;;5.70;88.80;;;;;;5091304;28;20070;-74
2021/11/28 00:24:18;;;;;;;11.80;8.30;;;5.80;88.80;;;;;;5091306;28;20502;-73
2021/11/28 00:26:44;;;;;;;12.00;8.23;;;5.80;88.80;;;;;;5091375;28;20073;-73
2021/11/28 00:29:11;;;;;;;13.63;7.63;;;5.80;88.80;;;;;;5095112;28;20039;-75
2021/11/28 00:31:37;;;;;;;9.57;6.63;;;5.80;88.70;;;;;;5095084;28;20020;-73
2021/11/28 00:34:03;;;;;;;9.95;6.53;;;5.80;88.70;;;;;;5095023;28;20117;-73
2021/11/28 00:36:29;;;;;;;8.52;5.43;;;5.90;88.70;;;;;;5094919;28;20028;-74
2021/11/28 00:38:55;;;;;;;7.90;4.85;;;5.90;88.70;;;;;;5096196;28;20027;-73
2021/11/28 00:41:21;;;;;;;7.50;4.95;;;5.90;88.80;;;;;;5094764;28;20430;-73
2021/11/28 00:43:46;;;;;;;7.57;4.97;;;5.90;88.70;;;;;;5096026;28;20024;-74
2021/11/28 00:46:12;;;;;;;10.38;5.45;;;5.90;88.70;;;;;;5096249;28;20089;-74
2021/11/28 00:48:41;;;;;;;9.80;4.55;;;5.90;88.60;;;;;;5094675;28;20468;-73
2021/11/28 00:51:22;;;;;;;5.57;3.95;;;5.90;88.60;;;;;;5094781;28;20122;-73
2021/11/28 00:53:51;;;;;;;6.35;4.18;;;5.90;88.60;;;;;;5094636;28;20051;-73
2021/11/28 00:56:18;;;;;;;5.60;3.80;;;5.80;88.50;;;;;;5095791;28;20107;-74
2021/11/28 00:58:46;;;;;;;7.13;4.00;;;5.80;88.60;;;;;;5094547;28;20111;-73
2021/11/28 01:01:11;;;;;;;6.15;3.95;;;5.80;88.50;;;;;;5094269;28;20052;-74
2021/11/28 01:03:37;;;;;;;6.05;3.88;;;5.80;88.50;;;;;;5095669;28;20028;-73
2021/11/28 01:06:03;;;;;;;6.57;3.97;;;5.80;88.50;;;;;;5095695;28;20051;-74
2021/11/28 01:08:28;;;;;;;6.18;4.03;;;5.90;89.20;;;;;;5094286;28;20051;-73
2021/11/28 01:10:54;;;;;;;9.35;4.25;;;5.80;88.50;;;;;;5095653;28;20487;-74
2021/11/28 01:13:20;;;;;;;6.30;3.97;;;5.90;88.50;;;;;;5094470;28;20090;-74
2021/11/28 01:15:46;;;;;;;6.07;3.55;;;5.90;88.50;;;;;;5094238;28;20016;-73
2021/11/28 01:18:11;;;;;;;6.45;3.83;;;5.90;88.50;;;;;;5094147;28;20020;-74
2021/11/28 01:20:37;;;;;;;7.72;4.13;;;5.90;88.50;;;;;;5094111;28;20558;-73
2021/11/28 01:23:03;;;;;;;5.90;4.03;;;5.90;88.40;;;;;;5094161;28;20039;-73
2021/11/28 01:25:29;;;;;;;8.50;4.18;;;5.90;88.40;;;;;;5094090;28;20106;-74
2021/11/28 01:27:54;;;;;;;5.38;3.70;;;5.90;88.40;;;;;;5095370;28;20451;-74
2021/11/28 01:30:20;;;;;;;7.00;4.30;;;5.90;88.40;;;;;;5093996;28;20066;-75
2021/11/28 01:32:47;;;;;;;7.75;3.88;;;5.90;88.30;;;;;;5095187;28;20027;-74
2021/11/28 01:35:14;;;;;;;5.78;4.00;;;5.90;88.30;;;;;;5091048;28;20582;-75
2021/11/28 01:37:41;;;;;;;7.18;4.18;;;5.90;88.30;;;;;;5093934;28;20472;-73
2021/11/28 01:40:19;;;;;;;5.43;4.03;;;5.90;88.30;;;;;;5092570;28;20028;-74
2021/11/28 01:42:54;;;;;;;8.45;4.30;;;5.90;88.30;;;;;;5093844;28;20065;-74
2021/11/28 01:45:23;;;;;;;9.27;3.95;;;5.90;88.30;;;;;;5093639;28;20024;-74
2021/11/28 01:47:50;;;;;;;7.68;4.22;;;5.90;88.30;;;;;;5093697;28;20024;-74
2021/11/28 01:50:16;;;;;;;6.80;4.03;;;5.90;88.20;;;;;;5093659;28;20035;-74
2021/11/28 01:52:42;;;;;;;6.32;4.13;;;5.80;88.20;;;;;;5093617;28;20491;-74
2021/11/28 01:55:12;;;;;;;7.95;4.20;;;5.80;88.20;;;;;;5093423;28;20017;-75
2021/11/28 01:57:39;;;;;;;9.00;4.32;;;5.80;88.20;;;;;;5093488;28;20024;-73
2021/11/28 02:03:27;;;;;;;7.93;4.65;;;5.80;88.20;;;;;;5078390;28;20059;-74
2021/11/28 02:05:58;;;;;;;6.68;4.75;;;5.80;88.20;;;;;;5076790;28;20056;-73
2021/11/28 02:08:25;;;;;;;7.30;4.80;;;5.80;88.20;;;;;;5093180;28;20020;-73
2021/11/28 02:10:51;;;;;;;7.45;5.63;;;5.70;88.10;;;;;;5093125;28;20024;-73
2021/11/28 02:13:19;;;;;;;8.52;5.75;;;5.70;88.20;;;;;;5093099;28;20043;-73
2021/11/28 02:15:45;;;;;;;10.30;6.63;;;5.60;88.10;;;;;;5092945;28;20020;-73
2021/11/28 02:18:11;;;;;;;9.90;6.60;;;5.60;88.20;;;;;;5092970;28;20396;-72
2021/11/28 02:20:48;;;;;;;9.38;6.65;;;5.60;88.30;;;;;;5092780;28;20024;-73
2021/11/28 02:23:14;;;;;;;10.20;6.78;;;5.50;88.20;;;;;;5093315;28;20020;-73
2021/11/28 02:25:41;;;;;;;11.13;7.13;;;5.50;88.20;;;;;;5092903;28;20035;-73
2021/11/28 02:28:07;;;;;;;11.38;7.43;;;5.50;88.40;;;;;;5093162;28;20027;-73
2021/11/28 02:30:33;;;;;;;12.15;8.10;;;5.50;88.50;;;;;;5092674;28;20024;-73
2021/11/28 02:32:58;;;;;;;11.27;8.60;;;5.50;88.50;;;;;;5092772;28;20035;-74
2021/11/28 02:35:27;;;;;;;13.35;8.68;;;5.50;88.50;;;;;;5092825;28;20024;-73
2021/11/28 02:37:53;;;;;;;11.75;8.48;;;5.50;88.50;;;;;;5092970;28;20027;-73
2021/11/28 02:40:21;;;;;;;13.77;8.63;;;5.50;88.40;;;;;;5092530;28;20409;-73
2021/11/28 02:42:49;;;;;;;15.18;9.48;;;5.50;88.40;;;;;;5092612;28;20050;-75
2021/11/28 02:45:16;;;;;;;13.35;9.15;;;5.50;88.40;;;;;;5092510;28;20411;-73
2021/11/28 02:47:42;;;;;;;15.18;9.35;;;5.40;88.40;;;;;;5092401;28;20024;-73
2021/11/28 02:50:11;;;;;;;13.73;9.15;;;5.40;88.50;;;;;;5092262;28;20028;-74
2021/11/28 02:52:37;;;;;;;16.23;10.10;;;5.40;88.50;;;;;;5093728;28;20056;-74
2021/11/28 02:55:04;;;;;;;15.82;9.85;;;5.40;88.60;;;;;;5092331;28;20028;-73
2021/11/28 02:57:30;;;;;;;14.05;9.65;;;5.40;88.60;;;;;;5092359;28;20492;-73
2021/11/28 02:59:55;;;;;;;15.38;10.52;;;5.40;88.60;;;;;;5092238;28;20032;-74
2021/11/28 03:02:21;;;;;;;14.13;9.63;;;5.40;88.60;;;;;;5092354;28;20024;-73
2021/11/28 03:04:47;;;;;;;14.50;9.93;;;5.50;88.60;;;;;;5092075;28;20522;-72
2021/11/28 03:07:18;;;;;;;13.27;9.32;;;5.40;88.50;;;;;;5092554;28;20086;-72
2021/11/28 03:09:44;;;;;;;14.43;9.68;;;5.50;89.20;;;;;;5093559;28;20059;-73
2021/11/28 03:12:11;;;;;;;13.65;9.48;;;5.40;88.40;;;;;;5092035;28;20488;-73
2021/11/28 03:14:37;;;;;;;15.18;10.13;;;5.40;88.40;;;;;;5092123;28;20036;-73
2021/11/28 03:17:04;;;;;;;14.77;10.05;;;5.40;88.40;;;;;;5092002;28;20479;-73
2021/11/28 03:19:29;;;;;;;15.18;9.70;;;5.40;88.50;;;;;;5093291;28;20411;-74
2021/11/28 03:21:55;;;;;;;14.70;9.82;;;5.40;88.60;;;;;;5092071;28;20169;-73
2021/11/28 03:24:21;;;;;;;14.23;9.82;;;5.40;88.60;;;;;;5092006;28;20077;-73
2021/11/28 03:26:48;;;;;;;16.25;10.20;;;5.40;88.70;;;;;;5091976;28;20036;-72
2021/11/28 03:29:16;;;;;;;16.67;11.02;;;5.40;88.60;;;;;;5092034;28;20031;-72
2021/11/28 03:31:45;;;;;;;16.42;10.80;;;5.40;88.60;;;;;;5092062;28;20039;-73
2021/11/28 03:34:12;;;;;;;14.77;9.95;;;5.40;88.40;;;;;;5092038;28;20545;-73
2021/11/28 03:36:43;;;;;;;15.65;9.50;;;5.40;88.60;;;;;;5093112;28;20538;-72
2021/11/28 03:39:12;;;;;;;17.02;10.25;;;5.30;88.60;;;;;;5092224;28;20107;-73
2021/11/28 03:41:41;;;;;;;15.23;10.43;;;5.30;88.60;;;;;;5090884;28;20531;-73
2021/11/28 03:44:07;;;;;;;15.05;9.73;;;5.30;88.60;;;;;;5074009;28;20134;-73
2021/11/28 03:46:33;;;;;;;17.20;10.55;;;5.30;88.60;;;;;;5090784;28;20464;-72
2021/11/28 03:49:00;;;;;;;15.18;9.90;;;5.30;88.60;;;;;;5074106;28;20169;-73
2021/11/28 03:51:27;;;;;;;16.30;10.60;;;5.30;88.70;;;;;;5090890;28;20085;-73
2021/11/28 03:53:53;;;;;;;14.25;10.02;;;5.30;88.60;;;;;;5074022;28;20035;-72
2021/11/28 03:56:19;;;;;;;15.95;10.38;;;5.30;88.70;;;;;;5073788;28;20561;-73
2021/11/28 03:58:44;;;;;;;20.85;10.63;;;5.30;88.70;;;;;;5090901;28;20028;-75
2021/11/28 04:01:12;;;;;;;14.77;9.52;;;5.30;88.70;;;;;;5090721;28;20111;-72
2021/11/28 04:03:38;;;;;;;14.20;9.77;;;5.30;88.70;;;;;;5093775;28;20040;-73
2021/11/28 04:06:04;;;;;;;14.43;10.02;;;5.40;88.70;;;;;;5094699;28;20396;-73
2021/11/28 04:08:30;;;;;;;13.68;9.80;;;5.40;88.80;;;;;;5077665;28;20104;-74
2021/11/28 04:10:56;;;;;;;15.85;10.07;;;5.40;88.70;;;;;;5077883;28;20114;-73
2021/11/28 04:13:22;;;;;;;16.20;10.45;;;5.40;88.60;;;;;;5091614;28;20058;-73
2021/11/28 04:15:48;;;;;;;17.45;10.80;;;5.50;88.70;;;;;;5095459;28;20457;-73
2021/11/28 04:18:13;;;;;;;17.05;10.43;;;5.50;88.70;;;;;;5096729;28;20028;-73
2021/11/28 04:20:41;;;;;;;14.57;10.20;;;5.50;88.70;;;;;;5095308;28;20054;-73
2021/11/28 04:23:07;;;;;;;16.50;9.88;;;5.50;88.60;;;;;;5096639;28;20024;-73
2021/11/28 04:25:33;;;;;;;14.68;9.52;;;5.50;88.60;;;;;;5096636;28;20506;-73
2021/11/28 04:27:59;;;;;;;15.70;9.63;;;5.50;88.60;;;;;;5095241;28;20077;-73
2021/11/28 04:30:28;;;;;;;15.20;9.70;;;5.50;88.60;;;;;;5095298;28;20028;-72
2021/11/28 04:32:54;;;;;;;15.35;9.38;;;5.50;88.60;;;;;;5095198;28;20039;-73
2021/11/28 04:35:21;;;;;;;14.95;9.45;;;5.50;88.50;;;;;;5095126;28;20031;-72
2021/11/28 04:37:47;;;;;;;15.65;9.98;;;5.40;88.40;;;;;;5094976;28;20035;-73
2021/11/28 04:40:14;;;;;;;16.20;10.38;;;5.40;88.50;;;;;;5096277;28;20373;-73
2021/11/28 04:42:39;;;;;;;14.27;9.85;;;5.30;88.40;;;;;;5096284;28;20024;-73
2021/11/28 04:45:07;;;;;;;15.95;9.63;;;5.30;88.50;;;;;;5094816;28;20038;-72
2021/11/28 04:47:33;;;;;;;13.98;9.95;;;5.30;88.60;;;;;;5094739;28;20024;-72
2021/11/28 04:49:59;;;;;;;15.98;9.93;;;5.30;88.50;;;;;;5096105;28;20036;-73
2021/11/28 04:52:25;;;;;;;14.90;9.90;;;5.30;88.50;;;;;;5094775;28;20119;-73
2021/11/28 04:54:51;;;;;;;13.55;9.55;;;5.30;88.50;;;;;;5096079;28;20052;-73
2021/11/28 04:57:19;;;;;;;14.23;9.07;;;5.20;88.40;;;;;;5094658;28;20519;-72
2021/11/28 04:59:46;;;;;;;15.02;9.95;;;5.20;88.40;;;;;;5095848;28;20391;-73
2021/11/28 05:02:12;;;;;;;15.10;10.30;;;5.20;88.40;;;;;;5094706;28;20041;-73
2021/11/28 05:04:38;;;;;;;13.43;9.23;;;5.10;88.30;;;;;;5094385;28;20032;-72
2021/11/28 05:07:04;;;;;;;13.88;9.85;;;5.10;88.30;;;;;;5095770;28;20073;-75
2021/11/28 05:09:30;;;;;;;13.82;9.38;;;5.10;88.30;;;;;;5094927;28;20020;-72
2021/11/28 05:11:55;;;;;;;12.90;8.60;;;5.10;88.40;;;;;;5095658;28;20054;-72
2021/11/28 05:14:21;;;;;;;15.25;9.65;;;5.10;88.30;;;;;;5094142;28;20081;-73
2021/11/28 05:16:46;;;;;;;13.85;8.82;;;5.00;88.20;;;;;;5094248;28;20369;-72
2021/11/28 05:19:13;;;;;;;15.00;9.75;;;5.00;88.20;;;;;;5095513;28;20035;-73
2021/11/28 05:21:38;;;;;;;16.00;10.15;;;5.00;88.10;;;;;;5094236;28;20024;-73
2021/11/28 05:24:05;;;;;;;15.23;9.77;;;5.00;88.20;;;;;;5094236;28;20400;-75
2021/11/28 05:26:31;;;;;;;16.10;10.18;;;4.90;88.20;;;;;;5091187;28;20036;-73
2021/11/28 05:28:56;;;;;;;16.08;10.82;;;4.90;88.20;;;;;;5094142;28;20034;-73
2021/11/28 05:31:22;;;;;;;14.95;10.13;;;4.90;88.30;;;;;;5094079;28;20488;-73
2021/11/28 05:33:49;;;;;;;17.08;11.00;;;4.90;88.40;;;;;;5093918;28;20086;-73
2021/11/28 05:36:16;;;;;;;16.42;11.05;;;4.80;88.40;;;;;;5094293;28;20020;-73
2021/11/28 05:38:42;;;;;;;17.38;11.55;;;4.70;88.50;;;;;;5093865;28;20508;-73
2021/11/28 05:41:08;;;;;;;18.67;10.57;;;4.70;88.50;;;;;;5093843;28;20024;-72
2021/11/28 05:43:38;;;;;;;16.88;11.02;;;4.70;88.70;;;;;;5093868;28;20024;-74
2021/11/28 05:46:03;;;;;;;20.45;11.77;;;4.60;88.70;;;;;;5093691;28;20049;-73
2021/11/28 05:48:30;;;;;;;18.20;11.50;;;4.50;89.40;;;;;;5093661;28;20114;-72
2021/11/28 05:50:55;;;;;;;17.77;11.00;;;4.50;88.90;;;;;;5093694;28;20391;-73
2021/11/28 05:53:22;;;;;;;17.80;11.38;;;4.50;89.10;;;;;;5093619;28;20111;-73
2021/11/28 05:55:49;;;;;;;19.00;11.20;;;4.50;89.20;;;;;;5093462;28;20035;-73
2021/11/28 05:58:14;;;;;;;16.85;11.30;;;4.50;89.20;;;;;;5093690;28;20446;-73
2021/11/28 06:00:40;;;;;;;16.30;10.68;;;4.50;89.30;;;;;;5093265;28;20031;-73
2021/11/28 06:03:06;;;;;;;20.20;11.05;;;4.50;89.30;;;;;;5093232;28;20048;-73
2021/11/28 06:05:31;;;;;;;18.02;11.30;;;4.50;89.40;;;;;;5094811;28;20085;-73
2021/11/28 06:07:57;;;;;;;16.52;10.57;;;4.50;89.40;;;;;;5093446;28;20106;-73
2021/11/28 06:10:23;;;;;;;17.77;11.20;;;4.50;89.50;;;;;;5093290;28;20024;-73
2021/11/28 06:12:48;;;;;;;16.58;10.93;;;4.50;89.50;;;;;;5094500;28;20032;-72
2021/11/28 06:15:14;;;;;;;17.40;10.18;;;4.40;89.40;;;;;;5094158;28;20036;-74
2021/11/28 06:17:40;;;;;;;15.63;10.23;;;4.40;89.50;;;;;;5093102;28;20020;-73
2021/11/28 06:20:07;;;;;;;15.73;9.90;;;4.40;89.50;;;;;;5092940;28;20035;-73
2021/11/28 06:22:34;;;;;;;18.30;10.27;;;4.40;89.60;;;;;;5093031;28;20032;-73
2021/11/28 06:25:00;;;;;;;17.65;10.55;;;4.30;89.60;;;;;;5092380;28;20020;-73
2021/11/28 06:27:26;;;;;;;16.42;10.70;;;4.30;89.70;;;;;;5092892;28;20024;-73
2021/11/28 06:29:52;;;;;;;16.63;10.27;;;4.30;89.70;;;;;;5092891;28;20036;-73
2021/11/28 06:32:17;;;;;;;16.90;10.75;;;4.30;89.70;;;;;;5092873;28;20028;-73
2021/11/28 06:34:44;;;;;;;15.73;10.35;;;4.30;89.70;;;;;;5092738;28;20028;-73
2021/11/28 06:37:10;;;;;;;17.60;10.73;;;4.30;89.70;;;;;;5092738;28;20028;-73
2021/11/28 06:39:36;;;;;;;15.45;10.40;;;4.30;89.60;;;;;;5092507;28;20028;-72
2021/11/28 06:42:02;;;;;;;18.60;11.05;;;4.20;89.60;;;;;;5092541;28;20506;-73
2021/11/28 06:44:28;;;;;;;17.45;10.43;;;4.20;89.70;;;;;;5092667;28;20119;-72
2021/11/28 06:46:54;;;;;;;18.67;11.85;;;4.20;89.70;;;;;;5092765;28;20119;-73
2021/11/28 06:49:20;;;;;;;22.20;13.15;;;4.20;89.80;;;;;;5092534;28;20063;-73
2021/11/28 06:51:46;;;;;;;19.70;10.85;;;4.30;89.80;;;;;;5093811;28;20024;-73
2021/11/28 06:54:12;;;;;;;19.95;12.07;;;4.30;89.70;;;;;;5092417;28;20096;-73
2021/11/28 06:56:37;;;;;;;20.33;12.65;;;4.30;89.60;;;;;;5092899;28;20464;-73
2021/11/28 06:59:03;;;;;;;23.95;13.27;;;4.40;89.50;;;;;;5092469;28;20024;-73
2021/11/28 07:01:29;;;;;;;28.85;12.57;;;4.40;89.50;;;;;;5092320;28;20479;-73
2021/11/28 07:03:55;;;;;;;29.70;13.40;;;4.40;89.50;;;;;;5092026;28;20449;-73
2021/11/28 07:06:21;;;;;;;25.63;12.43;;;4.30;89.40;;;;;;5092261;28;20388;-72
2021/11/28 07:08:46;;;;;;;37.85;12.98;;;4.30;89.30;;;;;;5092069;28;20036;-72
2021/11/28 07:11:12;;;;;;;104.68;13.18;;;4.30;89.30;;;;;;5093605;28;20383;-72
2021/11/28 07:13:37;;;;;;;50.33;12.27;;;4.20;89.10;;;;;;5093508;28;20513;-73
2021/11/28 07:16:03;;;;;;;28.58;11.75;;;4.10;89.10;;;;;;5092051;28;20028;-72
2021/11/28 07:18:29;;;;;;;65.13;12.48;;;4.10;89.50;;;;;;5092108;28;20111;-73
2021/11/28 07:24:17;;;;;;;54.15;11.57;;;4.10;89.60;;;;;;5093399;28;20291;-72
2021/11/28 07:26:42;;;;;;;42.95;11.88;;;4.20;89.60;;;;;;5092008;28;20082;-73
2021/11/28 07:29:08;;;;;;;33.15;11.90;;;4.20;89.50;;;;;;5091939;28;20020;-73
2021/11/28 07:31:34;;;;;;;29.55;11.05;;;4.20;89.50;;;;;;5091859;28;20494;-73
2021/11/28 07:33:59;;;;;;;29.50;11.70;;;4.20;89.50;;;;;;5091926;28;20136;-72
2021/11/28 07:36:25;;;;;;;25.35;11.55;;;4.20;89.40;;;;;;5091149;28;20031;-72
2021/11/28 07:38:51;;;;;;;26.60;11.70;;;4.20;89.50;;;;;;5092762;28;20032;-72
2021/11/28 07:41:16;;;;;;;22.90;11.65;;;4.20;90.00;;;;;;5091725;28;20083;-73
2021/11/28 07:43:42;;;;;;;26.95;10.98;;;4.20;89.50;;;;;;5091791;28;20026;-72
2021/11/28 07:46:08;;;;;;;27.00;11.27;;;4.30;89.50;;;;;;5091543;28;20392;-73
2021/11/28 07:48:33;;;;;;;27.13;9.95;;;4.30;89.40;;;;;;5093022;28;20099;-73
2021/11/28 07:50:59;;;;;;;34.33;11.02;;;4.20;89.20;;;;;;5091694;28;20060;-73
2021/11/28 07:53:28;;;;;;;24.08;10.93;;;4.10;89.10;;;;;;5091624;28;20114;-73
2021/11/28 07:55:54;;;;;;;24.67;10.90;;;4.10;89.40;;;;;;5091670;28;20024;-73
2021/11/28 07:58:20;;;;;;;45.25;10.23;;;4.10;90.00;;;;;;5091615;28;20020;-72
2021/11/28 08:00:46;;;;;;;30.17;9.73;;;4.10;89.50;;;;;;5091487;28;20504;-73
2021/11/28 08:03:14;;;;;;;20.77;9.50;;;4.00;89.30;;;;;;5091447;28;20101;-73
2021/11/28 08:05:40;;;;;;;21.83;10.57;;;4.00;89.50;;;;;;5091578;28;20035;-73
2021/11/28 08:08:06;;;;;;;22.20;10.77;;;4.00;89.60;;;;;;5088728;28;20032;-74
2021/11/28 08:10:32;;;;;;;26.23;10.52;;;4.00;89.60;;;;;;5091467;28;20020;-72
2021/11/28 08:12:58;;;;;;;14.93;9.77;;;4.10;89.60;;;;;;5091588;28;20031;-72
2021/11/28 08:15:24;;;;;;;17.33;10.50;;;4.10;89.50;;;;;;5091527;28;20031;-73
2021/11/28 08:17:51;;;;;;;15.20;9.52;;;4.00;89.40;;;;;;5091532;28;20020;-73
2021/11/28 08:20:18;;;;;;;15.57;9.75;;;4.00;89.50;;;;;;5092640;28;20043;-72
2021/11/28 08:22:45;;;;;;;16.63;9.82;;;4.00;89.50;;;;;;5092721;28;20021;-72
2021/11/28 08:25:13;;;;;;;16.98;10.90;;;4.00;89.50;;;;;;5091414;28;20035;-73
2021/11/28 08:27:40;;;;;;;19.90;10.70;;;4.10;89.50;;;;;;5091406;28;20020;-73
2021/11/28 08:30:11;;;;;;;18.42;10.05;;;4.10;89.50;;;;;;5091398;28;20062;-72
2021/11/28 08:32:39;;;;;;;17.23;10.55;;;4.10;89.50;;;;;;5092613;28;20028;-73
2021/11/28 08:35:06;;;;;;;17.23;10.20;;;4.10;89.30;;;;;;5092641;28;20024;-72
2021/11/28 08:37:32;;;;;;;16.23;10.25;;;4.00;89.20;;;;;;5091305;28;20036;-73
2021/11/28 08:39:58;;;;;;;17.80;10.73;;;4.00;89.30;;;;;;5091137;28;20475;-73
2021/11/28 08:42:24;;;;;;;16.65;9.77;;;4.00;89.30;;;;;;5091241;28;20028;-73
2021/11/28 08:44:50;;;;;;;17.95;9.65;;;4.00;89.30;;;;;;5091210;28;20016;-73
2021/11/28 08:47:15;;;;;;;17.73;10.15;;;4.00;89.30;;;;;;5091239;28;20020;-73
2021/11/28 08:49:41;;;;;;;15.77;8.95;;;4.00;89.30;;;;;;5094235;28;20024;-73
2021/11/28 08:52:07;;;;;;;18.42;9.82;;;4.00;89.20;;;;;;5096166;28;20032;-73
2021/11/28 08:54:33;;;;;;;17.02;10.10;;;4.00;89.20;;;;;;5095974;28;20035;-72
2021/11/28 08:56:59;;;;;;;18.10;10.30;;;4.00;89.20;;;;;;5094786;28;20024;-73
2021/11/28 08:59:29;;;;;;;18.60;10.20;;;4.00;89.20;;;;;;5094895;28;20030;-73
2021/11/28 09:01:56;;;;;;;16.33;9.70;;;4.10;89.20;;;;;;5094625;28;20369;-71
2021/11/28 09:04:22;;;;;;;17.02;10.32;;;4.20;89.30;;;;;;5094459;28;20048;-72
2021/11/28 09:06:47;;;;;;;19.55;9.80;;;4.20;89.10;;;;;;5094837;28;20020;-72
2021/11/28 09:09:13;;;;;;;18.02;10.40;;;4.30;89.00;;;;;;5094507;28;20032;-73
2021/11/28 09:11:39;;;;;;;18.85;9.93;;;4.30;88.90;;;;;;5095753;28;20024;-73
2021/11/28 09:14:05;;;;;;;15.10;9.30;;;4.40;88.90;;;;;;5094333;28;20066;-73
2021/11/28 09:16:31;;;;;;;16.23;9.60;;;4.50;88.70;;;;;;5094360;28;20589;-74
2021/11/28 09:19:12;;;;;;;14.55;9.18;;;4.50;88.80;;;;;;5095677;28;20059;-74
2021/11/28 09:21:38;;;;;;;15.40;9.18;;;4.50;88.80;;;;;;5094107;28;20475;-73
2021/11/28 09:26:48;;;;;;;14.55;9.43;;;4.70;89.00;;;;;;5095668;28;20086;-75
2021/11/28 09:29:14;;;;;;;16.67;9.52;;;4.90;88.60;;;;;;5094096;28;20472;-74
2021/11/28 09:31:39;;;;;;;15.35;9.48;;;5.00;88.40;;;;;;5094061;28;20025;-73
2021/11/28 09:34:05;;;;;;;17.67;9.65;;;5.00;88.30;;;;;;5094104;28;20051;-73
2021/11/28 09:36:32;;;;;;;14.55;8.52;;;5.10;88.20;;;;;;5093932;28;20476;-72
2021/11/28 09:38:58;;;;;;;13.82;8.60;;;5.20;88.10;;;;;;5093796;28;20369;-73
2021/11/28 09:41:30;;;;;;;15.13;9.38;;;5.20;88.10;;;;;;5095070;28;20024;-73
2021/11/28 09:44:01;;;;;;;14.18;8.45;;;5.30;88.00;;;;;;5093776;28;20016;-73
2021/11/28 09:46:27;;;;;;;15.95;9.80;;;5.50;88.00;;;;;;5093729;28;20028;-73
2021/11/28 09:48:59;;;;;;;16.50;10.70;;;5.60;87.90;;;;;;5093540;28;20053;-73
2021/11/28 09:51:28;;;;;;;16.25;10.40;;;5.70;87.60;;;;;;5093666;28;20024;-72
2021/11/28 09:53:59;;;;;;;15.10;9.35;;;5.80;88.00;;;;;;5093876;28;20024;-73
2021/11/28 09:56:27;;;;;;;16.00;9.73;;;5.90;87.30;;;;;;5094758;28;20020;-73
2021/11/28 09:58:54;;;;;;;14.18;9.27;;;6.00;87.20;;;;;;5093515;28;20031;-73
2021/11/28 10:01:20;;;;;;;14.90;10.10;;;6.10;87.10;;;;;;5092356;28;20077;-73
2021/11/28 10:03:46;;;;;;;15.30;9.68;;;6.10;86.90;;;;;;5093221;28;20044;-73
2021/11/28 10:06:12;;;;;;;15.30;9.60;;;6.10;86.70;;;;;;5093332;28;20016;-73
2021/11/28 10:08:38;;;;;;;15.38;10.23;;;6.10;86.80;;;;;;5093240;28;20119;-73
2021/11/28 10:11:18;;;;;;;14.52;9.52;;;6.10;86.80;;;;;;5093331;28;20502;-74
2021/11/28 10:13:44;;;;;;;13.90;9.50;;;6.10;86.80;;;;;;5093092;28;20035;-72
2021/11/28 10:16:10;;;;;;;15.70;9.90;;;6.10;86.90;;;;;;5093090;28;20024;-73
2021/11/28 10:18:36;;;;;;;15.55;9.63;;;6.10;86.70;;;;;;5094295;28;20392;-73
2021/11/28 10:21:03;;;;;;;16.45;9.65;;;6.10;86.60;;;;;;5092993;28;20027;-73
2021/11/28 10:23:29;;;;;;;15.50;9.70;;;6.00;86.70;;;;;;5093029;28;20017;-73
2021/11/28 10:26:14;;;;;;;15.63;9.65;;;6.00;86.70;;;;;;5093180;28;20015;-73
2021/11/28 10:29:18;;;;;;;15.60;9.95;;;6.00;86.90;;;;;;5092855;28;20027;-73
2021/11/28 10:31:50;;;;;;;14.68;9.70;;;6.10;87.00;;;;;;5071765;28;20079;-73
2021/11/28 10:34:21;;;;;;;14.50;9.02;;;6.10;86.90;;;;;;5071754;28;20090;-74
2021/11/28 10:36:49;;;;;;;12.95;8.57;;;6.10;86.80;;;;;;5074079;28;20172;-73
2021/11/28 10:39:16;;;;;;;12.73;8.57;;;6.10;86.70;;;;;;5092618;28;20074;-73
2021/11/28 10:41:51;;;;;;;15.82;9.57;;;6.10;86.70;;;;;;5093800;28;20111;-73
2021/11/28 10:44:18;;;;;;;15.43;9.50;;;6.10;86.70;;;;;;5092733;28;20127;-74
2021/11/28 10:46:44;;;;;;;14.50;9.50;;;6.10;86.70;;;;;;5093802;28;20030;-74
2021/11/28 10:49:20;;;;;;;14.57;9.32;;;6.10;86.70;;;;;;5093755;28;20099;-73
2021/11/28 10:51:48;;;;;;;15.27;9.75;;;6.10;86.90;;;;;;5092676;28;20492;-73
2021/11/28 10:54:27;;;;;;;17.17;10.38;;;6.10;86.80;;;;;;5092747;28;20050;-74
2021/11/28 10:57:05;;;;;;;15.55;10.60;;;6.10;86.80;;;;;;5092480;28;20400;-73
2021/11/28 10:59:31;;;;;;;16.63;10.20;;;6.10;86.90;;;;;;5092352;28;20132;-73
2021/11/28 11:01:57;;;;;;;18.05;10.88;;;6.20;86.90;;;;;;5092323;28;20027;-73
2021/11/28 11:04:22;;;;;;;16.45;10.52;;;6.20;86.90;;;;;;5092113;28;20040;-73
2021/11/28 11:10:36;;;;;;;15.88;10.18;;;6.30;87.00;;;;;;5093534;28;20081;-74
2021/11/28 11:13:06;;;;;;;16.48;10.50;;;6.30;86.80;;;;;;5092912;28;20036;-73
2021/11/28 11:15:38;;;;;;;18.20;11.57;;;6.30;86.80;;;;;;5093444;28;20027;-73
2021/11/28 11:21:26;;;;;;;16.75;10.27;;;6.40;86.80;;;;;;5093375;28;20067;-73
2021/11/28 11:23:52;;;;;;;17.33;11.07;;;6.30;86.80;;;;;;5092899;28;20028;-73
2021/11/28 11:26:24;;;;;;;17.52;10.85;;;6.30;87.30;;;;;;5092008;28;20020;-73
2021/11/28 11:29:07;;;;;;;16.42;11.40;;;6.30;86.80;;;;;;5091928;28;20484;-72
2021/11/28 11:31:34;;;;;;;15.20;9.63;;;6.20;86.70;;;;;;5091858;28;20484;-72
2021/11/28 11:34:00;;;;;;;15.88;9.73;;;6.20;86.80;;;;;;5093081;28;20708;-72
2021/11/28 11:37:12;;;;;;;14.63;9.07;;;6.20;86.80;;;;;;5092118;28;20035;-72
2021/11/28 11:39:37;;;;;;;13.40;8.55;;;6.10;86.70;;;;;;5053692;28;20036;-72
2021/11/28 11:42:03;;;;;;;13.13;8.30;;;6.10;86.80;;;;;;5070882;28;20044;-74
2021/11/28 11:44:30;;;;;;;12.90;8.02;;;6.20;86.80;;;;;;5071833;28;20035;-74
2021/11/28 11:46:58;;;;;;;14.05;9.00;;;6.20;86.90;;;;;;5091744;28;20023;-74
2021/11/28 11:49:25;;;;;;;11.60;8.07;;;6.30;87.40;;;;;;5091781;28;20023;-74
2021/11/28 11:51:51;;;;;;;12.18;8.02;;;6.40;86.70;;;;;;5092994;28;20534;-73
2021/11/28 11:54:31;;;;;;;13.65;8.45;;;6.40;86.70;;;;;;5091599;28;20051;-74
2021/11/28 11:57:03;;;;;;;13.50;9.35;;;6.50;86.70;;;;;;5092869;28;20073;-74
2021/11/28 11:59:57;;;;;;;13.50;8.60;;;6.50;86.50;;;;;;5092834;28;20106;-73
2021/11/28 12:02:30;;;;;;;11.98;8.00;;;6.50;86.40;;;;;;5092907;28;20393;-74
2021/11/28 12:08:21;;;;;;;12.00;6.75;;;6.50;86.30;;;;;;5093191;28;20494;-73
2021/11/28 12:10:47;;;;;;;10.38;6.70;;;6.40;86.40;;;;;;5091454;28;20032;-73
2021/11/28 12:13:34;;;;;;;10.52;6.13;;;6.50;86.50;;;;;;5091561;28;20089;-73
2021/11/28 12:16:05;;;;;;;9.93;6.53;;;6.50;86.60;;;;;;5091358;28;20045;-74
2021/11/28 12:18:34;;;;;;;9.85;6.80;;;6.50;86.60;;;;;;5091437;28;20032;-73
2021/11/28 12:21:05;;;;;;;10.13;6.18;;;6.50;86.60;;;;;;5092975;28;20031;-72
2021/11/28 12:23:42;;;;;;;10.65;6.40;;;6.60;86.60;;;;;;5092766;28;20073;-72
2021/11/28 12:26:27;;;;;;;10.25;6.55;;;6.70;86.40;;;;;;5095343;28;20030;-72
2021/11/28 12:29:10;;;;;;;9.48;6.00;;;6.70;86.30;;;;;;5095321;28;20479;-72
2021/11/28 12:31:41;;;;;;;9.77;6.75;;;6.70;86.30;;;;;;5095092;28;20472;-71
2021/11/28 12:34:09;;;;;;;10.45;7.22;;;6.80;86.30;;;;;;5095147;28;20082;-71
2021/11/28 12:36:43;;;;;;;10.45;6.82;;;6.80;86.20;;;;;;5095112;28;20051;-71
2021/11/28 12:39:11;;;;;;;8.88;6.10;;;6.80;86.20;;;;;;5095463;28;20047;-71
2021/11/28 12:41:46;;;;;;;9.75;6.43;;;6.80;86.10;;;;;;5095318;28;20517;-73
2021/11/28 12:44:13;;;;;;;8.07;5.70;;;6.80;86.00;;;;;;5094980;28;20085;-72
2021/11/28 12:46:50;;;;;;;9.80;5.97;;;6.70;86.10;;;;;;5094943;28;20017;-72
2021/11/28 12:49:44;;;;;;;7.32;5.15;;;6.80;86.20;;;;;;5094966;28;20472;-73
2021/11/28 12:52:24;;;;;;;7.63;4.90;;;6.70;86.00;;;;;;5096083;28;20020;-72
2021/11/28 12:55:18;;;;;;;5.07;3.50;;;6.70;86.00;;;;;;5096119;28;20380;-72
2021/11/28 12:57:56;;;;;;;3.88;2.85;;;6.70;85.60;;;;;;5087887;28;20036;-72
2021/11/28 13:00:27;;;;;;;3.10;2.22;;;6.50;85.30;;;;;;5094481;28;20043;-72
2021/11/28 13:03:11;;;;;;;2.40;2.20;;;6.40;85.70;;;;;;5095862;28;20016;-74
2021/11/28 13:05:44;;;;;;;2.38;1.77;;;6.30;86.10;;;;;;5094585;28;20137;-72
2021/11/28 13:08:13;;;;;;;;;;;6.20;86.50;;;;;;5096278;28;20455;-73
2021/11/28 13:10:46;;;;;;;2.47;1.50;;;6.10;86.70;;;;;;5095712;28;19915;-72
2021/11/28 13:13:27;;;;;;;3.03;1.70;;;6.00;86.90;;;;;;5094373;28;20024;-72